createdAt,value
2023-08-15T00:01:15.028Z,25.79
2023-08-15T00:04:17.315Z,25.85
2023-08-15T00:07:20.605Z,25.84
2023-08-15T00:10:24.396Z,25.84
2023-08-15T00:13:26.959Z,25.80
2023-08-15T00:16:29.177Z,25.80
2023-08-15T00:19:31.373Z,25.81
2023-08-15T00:22:33.559Z,25.79
2023-08-15T00:25:35.801Z,25.77
2023-08-15T00:28:37.949Z,25.75
2023-08-15T00:31:40.780Z,25.74
2023-08-15T00:34:43.034Z,25.89
2023-08-15T00:37:45.276Z,25.92
2023-08-15T00:40:47.495Z,25.86
2023-08-15T00:43:49.724Z,25.89
2023-08-15T00:46:51.989Z,25.84
2023-08-15T00:49:54.400Z,25.86
2023-08-15T00:52:56.667Z,25.87
2023-08-15T00:56:00.584Z,25.78
2023-08-15T00:59:03.315Z,25.80
2023-08-15T01:02:05.881Z,25.80
2023-08-15T01:05:08.825Z,25.77
2023-08-15T01:08:11.094Z,25.63
2023-08-15T01:11:13.876Z,25.47
2023-08-15T01:14:18.398Z,25.48
2023-08-15T01:17:30.047Z,25.47
2023-08-15T01:20:35.099Z,25.46
2023-08-15T01:23:40.287Z,25.51
2023-08-15T01:26:42.509Z,25.51
2023-08-15T01:29:44.740Z,25.53
2023-08-15T01:33:03.802Z,25.46
2023-08-15T01:36:21.156Z,25.46
2023-08-15T01:39:28.292Z,25.45
2023-08-15T01:42:31.194Z,25.47
2023-08-15T01:45:34.119Z,25.48
2023-08-15T01:48:41.460Z,25.40
2023-08-15T01:51:43.771Z,25.41
2023-08-15T01:54:46.005Z,25.35
2023-08-15T01:57:48.149Z,25.32
2023-08-15T02:00:50.917Z,25.25
2023-08-15T02:03:53.164Z,25.29
2023-08-15T02:06:55.398Z,25.29
2023-08-15T02:09:57.612Z,25.33
2023-08-15T02:12:59.816Z,25.25
2023-08-15T02:16:02.513Z,25.32
2023-08-15T02:19:04.765Z,25.37
2023-08-15T02:22:07.011Z,25.38
2023-08-15T02:25:09.401Z,25.40
2023-08-15T02:28:11.596Z,25.37
2023-08-15T02:31:13.923Z,25.31
2023-08-15T02:34:19.543Z,25.29
2023-08-15T02:37:22.083Z,25.27
2023-08-15T02:40:28.224Z,25.27
2023-08-15T02:43:30.409Z,25.22
2023-08-15T02:46:35.244Z,25.26
2023-08-15T02:49:37.561Z,25.14
2023-08-15T02:52:39.786Z,25.16
2023-08-15T02:55:42.015Z,25.20
2023-08-15T02:58:44.258Z,25.15
2023-08-15T03:01:48.166Z,25.26
2023-08-15T03:04:50.545Z,25.21
2023-08-15T03:07:52.793Z,25.14
2023-08-15T03:10:55.032Z,25.24
2023-08-15T03:13:59.327Z,25.06
2023-08-15T03:17:03.452Z,24.98
2023-08-15T03:20:07.276Z,25.01
2023-08-15T03:23:10.012Z,24.88
2023-08-15T03:26:13.231Z,24.94
2023-08-15T03:29:15.988Z,24.77
2023-08-15T03:32:18.209Z,24.84
2023-08-15T03:35:22.723Z,24.97
2023-08-15T03:38:25.452Z,25.01
2023-08-15T03:41:28.162Z,25.05
2023-08-15T03:44:30.346Z,24.92
2023-08-15T03:47:32.574Z,24.92
2023-08-15T03:50:36.171Z,24.96
2023-08-15T03:53:38.442Z,25.01
2023-08-15T03:56:40.795Z,25.10
2023-08-15T03:59:43.020Z,25.26
2023-08-15T04:02:45.901Z,25.36
2023-08-15T04:05:48.358Z,25.40
2023-08-15T04:08:50.596Z,25.72
2023-08-15T04:11:52.889Z,25.69
2023-08-15T04:14:55.152Z,25.63
2023-08-15T04:17:57.477Z,25.75
2023-08-15T04:21:01.410Z,26.25
2023-08-15T04:24:04.060Z,26.51
2023-08-15T04:27:07.708Z,26.58
2023-08-15T04:30:10.552Z,26.82
2023-08-15T04:33:12.763Z,26.92
2023-08-15T04:36:15.961Z,26.89
2023-08-15T04:39:22.610Z,26.57
2023-08-15T04:42:24.996Z,26.70
2023-08-15T04:45:27.737Z,26.89
2023-08-15T04:48:29.940Z,26.86
2023-08-15T04:51:32.146Z,26.99
2023-08-15T04:54:34.397Z,27.00
2023-08-15T04:57:36.597Z,26.80
2023-08-15T05:00:38.821Z,26.76
2023-08-15T05:03:41.589Z,26.64
2023-08-15T05:06:43.749Z,26.65
2023-08-15T05:09:46.037Z,26.67
2023-08-15T05:12:48.217Z,26.75
2023-08-15T05:15:50.505Z,26.65
2023-08-15T05:18:52.780Z,26.67
2023-08-15T05:21:57.004Z,26.67
2023-08-15T05:25:00.579Z,26.73
2023-08-15T05:28:05.541Z,26.77
2023-08-15T05:31:07.783Z,26.68
2023-08-15T05:34:11.363Z,26.73
2023-08-15T05:37:13.834Z,26.72
2023-08-15T05:40:16.581Z,26.81
2023-08-15T05:43:18.797Z,26.78
2023-08-15T05:46:20.983Z,26.88
2023-08-15T05:49:23.170Z,26.90
2023-08-15T05:52:27.109Z,27.00
2023-08-15T05:55:29.278Z,26.98
2023-08-15T05:58:31.564Z,27.04
2023-08-15T06:01:33.867Z,27.07
2023-08-15T06:04:36.191Z,27.10
2023-08-15T06:07:38.544Z,27.19
2023-08-15T06:10:40.780Z,27.33
2023-08-15T06:13:42.954Z,27.32
2023-08-15T06:16:45.166Z,27.40
2023-08-15T06:19:47.579Z,27.38
2023-08-15T06:22:49.829Z,27.35
2023-08-15T06:25:52.074Z,27.27
2023-08-15T06:28:54.224Z,27.39
2023-08-15T06:31:59.107Z,27.50
2023-08-15T06:35:02.240Z,27.51
2023-08-15T06:38:04.651Z,27.63
2023-08-15T06:41:07.945Z,27.65
2023-08-15T06:44:10.229Z,27.69
2023-08-15T06:47:12.581Z,27.75
2023-08-15T06:50:14.724Z,27.78
2023-08-15T06:53:16.981Z,27.77
2023-08-15T06:56:19.344Z,27.84
2023-08-15T06:59:24.627Z,28.00
2023-08-15T07:02:26.947Z,28.05
2023-08-15T07:05:29.200Z,28.07
2023-08-15T07:08:32.215Z,28.15
2023-08-15T07:11:37.171Z,28.27
2023-08-15T07:14:39.374Z,28.32
2023-08-15T07:17:41.620Z,28.36
2023-08-15T07:20:45.740Z,28.38
2023-08-15T07:23:47.948Z,28.41
2023-08-15T07:26:50.150Z,28.52
2023-08-15T07:29:52.361Z,28.55
2023-08-15T07:32:56.246Z,28.63
2023-08-15T07:35:58.578Z,28.70
2023-08-15T07:39:00.792Z,28.70
2023-08-15T07:42:03.175Z,28.70
2023-08-15T07:45:06.173Z,28.75
2023-08-15T07:48:08.381Z,28.88
2023-08-15T07:51:11.859Z,28.95
2023-08-15T07:54:14.627Z,28.96
2023-08-15T07:57:16.843Z,29.07
2023-08-15T08:00:19.247Z,29.09
2023-08-15T08:03:21.537Z,29.13
2023-08-15T08:06:39.088Z,29.15
2023-08-15T08:09:42.408Z,29.22
2023-08-15T08:12:46.855Z,29.28
2023-08-15T08:15:49.420Z,29.29
2023-08-15T08:18:51.660Z,29.28
2023-08-15T08:21:54.561Z,29.38
2023-08-15T08:24:56.734Z,29.42
2023-08-15T08:27:58.905Z,29.47
2023-08-15T08:31:01.086Z,29.49
2023-08-15T08:34:03.288Z,29.55
2023-08-15T08:37:05.447Z,29.56
2023-08-15T08:40:09.303Z,29.66
2023-08-15T08:43:12.294Z,29.63
2023-08-15T08:46:15.025Z,29.73
2023-08-15T08:49:18.038Z,29.75
2023-08-15T08:52:20.240Z,29.79
2023-08-15T08:55:23.533Z,29.81
2023-08-15T08:58:27.381Z,29.85
2023-08-15T09:01:31.047Z,29.83
2023-08-15T09:04:33.235Z,29.93
2023-08-15T09:07:36.397Z,29.95
2023-08-15T09:10:38.707Z,30.01
2023-08-15T09:13:53.834Z,29.96
2023-08-15T09:16:56.180Z,30.04
2023-08-15T09:20:08.429Z,30.12
2023-08-15T09:23:10.623Z,30.11
2023-08-15T09:26:14.134Z,30.13
2023-08-15T09:29:17.269Z,30.20
2023-08-15T09:32:19.522Z,30.22
2023-08-15T09:35:21.697Z,30.20
2023-08-15T09:38:23.834Z,30.25
2023-08-15T09:41:27.955Z,30.26
2023-08-15T09:44:31.879Z,30.28
2023-08-15T09:47:35.693Z,30.32
2023-08-15T09:50:39.246Z,30.34
2023-08-15T09:53:43.674Z,30.37
2023-08-15T09:56:47.673Z,30.39
2023-08-15T09:59:49.861Z,30.36
2023-08-15T10:03:12.300Z,30.41
2023-08-15T10:06:14.870Z,30.39
2023-08-15T10:09:17.746Z,30.37
2023-08-15T10:12:20.477Z,30.39
2023-08-15T10:15:23.405Z,30.39
2023-08-15T10:18:26.329Z,30.39
2023-08-15T10:21:50.090Z,30.53
2023-08-15T10:24:52.325Z,30.48
2023-08-15T10:27:56.707Z,30.53
2023-08-15T10:30:59.150Z,30.59
2023-08-15T10:34:03.564Z,30.55
2023-08-15T10:37:27.997Z,30.66
2023-08-15T10:40:41.706Z,30.65
2023-08-15T10:43:52.364Z,30.71
2023-08-15T10:46:57.411Z,30.71
2023-08-15T10:49:59.650Z,30.74
2023-08-15T10:53:08.172Z,30.76
2023-08-15T10:56:10.658Z,30.81
2023-08-15T10:59:15.326Z,30.85
2023-08-15T11:02:17.665Z,30.86
2023-08-15T11:05:20.489Z,30.92
2023-08-15T11:08:22.733Z,30.87
2023-08-15T11:11:25.657Z,30.89
2023-08-15T11:14:27.824Z,30.98
2023-08-15T11:17:30.045Z,31.02
2023-08-15T11:20:32.332Z,31.04
2023-08-15T11:23:35.350Z,31.09
2023-08-15T11:26:37.569Z,31.11
2023-08-15T11:29:40.768Z,31.13
2023-08-15T11:32:43.242Z,31.13
2023-08-15T11:35:48.596Z,31.15
2023-08-15T11:38:50.790Z,31.22
2023-08-15T11:41:53.588Z,31.31
2023-08-15T11:45:02.906Z,31.36
2023-08-15T11:48:05.592Z,31.39
2023-08-15T11:51:07.881Z,31.42
2023-08-15T11:54:10.118Z,31.51
2023-08-15T11:57:12.354Z,31.55
2023-08-15T12:00:19.476Z,31.58
2023-08-15T12:03:21.797Z,31.66
2023-08-15T12:06:24.011Z,31.69
2023-08-15T12:09:30.713Z,31.74
2023-08-15T12:12:40.757Z,31.79
2023-08-15T12:15:43.014Z,31.85
2023-08-15T12:18:46.327Z,31.91
2023-08-15T12:21:50.323Z,31.92
2023-08-15T12:24:52.593Z,31.95
2023-08-15T12:27:54.791Z,32.00
2023-08-15T12:30:57.136Z,32.08
2023-08-15T12:33:59.296Z,32.14
2023-08-15T12:37:01.537Z,32.19
2023-08-15T12:40:05.244Z,32.22
2023-08-15T12:43:11.087Z,32.26
2023-08-15T12:46:16.003Z,32.20
2023-08-15T12:49:18.486Z,32.24
2023-08-15T12:52:21.067Z,32.28
2023-08-15T12:55:23.752Z,32.29
2023-08-15T12:58:26.130Z,32.22
2023-08-15T13:01:28.997Z,32.16
2023-08-15T13:04:31.346Z,32.21
2023-08-15T13:07:34.577Z,32.23
2023-08-15T13:10:36.901Z,32.16
2023-08-15T13:13:40.191Z,32.09
2023-08-15T13:16:42.748Z,32.03
2023-08-15T13:19:44.956Z,32.04
2023-08-15T13:22:47.151Z,32.05
2023-08-15T13:25:49.396Z,32.07
2023-08-15T13:28:51.889Z,31.99
2023-08-15T13:31:54.362Z,32.10
2023-08-15T13:34:56.575Z,32.12
2023-08-15T13:37:59.276Z,32.23
2023-08-15T13:41:01.562Z,32.28
2023-08-15T13:44:04.265Z,32.36
2023-08-15T13:47:06.572Z,32.45
2023-08-15T13:50:09.900Z,32.57
2023-08-15T13:53:12.248Z,32.68
2023-08-15T13:56:17.339Z,32.76
2023-08-15T13:59:19.537Z,32.81
2023-08-15T14:02:21.798Z,32.85
2023-08-15T14:05:24.031Z,32.74
2023-08-15T14:08:26.464Z,32.74
2023-08-15T14:11:28.753Z,32.71
2023-08-15T14:14:30.910Z,32.69
2023-08-15T14:17:33.092Z,32.65
2023-08-15T14:20:36.397Z,32.68
2023-08-15T14:23:41.166Z,32.79
2023-08-15T14:26:43.397Z,32.80
2023-08-15T14:29:45.591Z,32.68
2023-08-15T14:32:48.090Z,32.67
2023-08-15T14:35:50.307Z,32.58
2023-08-15T14:38:52.894Z,32.72
2023-08-15T14:41:55.064Z,32.73
2023-08-15T14:44:57.305Z,32.91
2023-08-15T14:47:59.555Z,32.93
2023-08-15T14:51:01.891Z,33.03
2023-08-15T14:54:04.369Z,33.20
2023-08-15T14:57:06.576Z,33.26
2023-08-15T15:00:10.090Z,33.26
2023-08-15T15:03:12.688Z,33.22
2023-08-15T15:06:16.185Z,33.21
2023-08-15T15:09:18.698Z,33.10
2023-08-15T15:12:20.850Z,33.11
2023-08-15T15:15:31.570Z,33.05
2023-08-15T15:18:43.701Z,32.99
2023-08-15T15:21:46.000Z,32.96
2023-08-15T15:24:48.231Z,33.05
2023-08-15T15:27:50.430Z,32.97
2023-08-15T15:30:53.616Z,32.91
2023-08-15T15:33:55.883Z,32.71
2023-08-15T15:36:58.128Z,32.71
2023-08-15T15:40:01.681Z,32.60
2023-08-15T15:43:04.060Z,32.41
2023-08-15T15:46:06.294Z,32.39
2023-08-15T15:49:09.482Z,32.33
2023-08-15T15:52:12.252Z,32.22
2023-08-15T15:55:15.041Z,32.13
2023-08-15T15:58:17.297Z,32.13
2023-08-15T16:01:19.530Z,32.03
2023-08-15T16:04:24.451Z,31.95
2023-08-15T16:07:26.692Z,31.89
2023-08-15T16:10:29.738Z,31.87
2023-08-15T16:13:31.907Z,31.84
2023-08-15T16:16:34.098Z,31.80
2023-08-15T16:19:36.331Z,31.76
2023-08-15T16:22:38.536Z,31.70
2023-08-15T16:25:40.732Z,31.67
2023-08-15T16:28:44.855Z,31.55
2023-08-15T16:31:47.034Z,31.63
2023-08-15T16:34:49.224Z,31.64
2023-08-15T16:37:51.509Z,31.65
2023-08-15T16:40:53.652Z,31.67
2023-08-15T16:43:57.428Z,31.58
2023-08-15T16:46:59.703Z,31.60
2023-08-15T16:50:01.988Z,31.61
2023-08-15T16:53:04.888Z,31.52
2023-08-15T16:56:07.073Z,31.56
2023-08-15T16:59:09.270Z,31.46
2023-08-15T17:02:11.562Z,31.42
2023-08-15T17:05:13.788Z,31.31
2023-08-15T17:08:16.119Z,31.33
2023-08-15T17:11:18.772Z,31.25
2023-08-15T17:14:21.411Z,31.20
2023-08-15T17:17:23.932Z,31.09
2023-08-15T17:20:26.218Z,30.87
2023-08-15T17:23:28.378Z,30.77
2023-08-15T17:26:30.649Z,30.78
2023-08-15T17:29:33.131Z,30.68
2023-08-15T17:32:35.390Z,30.67
2023-08-15T17:35:37.585Z,30.59
2023-08-15T17:38:39.800Z,30.64
2023-08-15T17:41:44.814Z,30.60
2023-08-15T17:44:48.148Z,30.49
2023-08-15T17:47:50.320Z,30.45
2023-08-15T17:50:52.565Z,30.37
2023-08-15T17:53:54.800Z,30.37
2023-08-15T17:56:57.078Z,30.29
2023-08-15T17:59:59.316Z,30.27
2023-08-15T18:03:01.517Z,30.21
2023-08-15T18:06:03.739Z,30.18
2023-08-15T18:09:05.962Z,30.17
2023-08-15T18:12:08.356Z,30.12
2023-08-15T18:15:11.535Z,30.05
2023-08-15T18:18:13.804Z,30.00
2023-08-15T18:21:16.097Z,30.04
2023-08-15T18:24:18.501Z,29.94
2023-08-15T18:27:21.114Z,29.91
2023-08-15T18:30:23.371Z,29.83
2023-08-15T18:33:25.564Z,29.83
2023-08-15T18:36:27.821Z,29.77
2023-08-15T18:39:29.991Z,29.68
2023-08-15T18:42:32.320Z,29.59
2023-08-15T18:45:34.580Z,29.62
2023-08-15T18:48:37.420Z,29.59
2023-08-15T18:51:39.624Z,29.58
2023-08-15T18:54:41.820Z,29.47
2023-08-15T18:57:44.064Z,29.49
2023-08-15T19:00:46.280Z,29.40
2023-08-15T19:03:48.560Z,29.40
2023-08-15T19:06:51.185Z,29.40
2023-08-15T19:09:54.443Z,29.33
2023-08-15T19:12:56.603Z,29.34
2023-08-15T19:15:58.877Z,29.33
2023-08-15T19:19:05.046Z,29.23
2023-08-15T19:22:07.225Z,29.28
2023-08-15T19:25:09.895Z,29.19
2023-08-15T19:28:12.129Z,29.00
2023-08-15T19:31:14.463Z,29.03
2023-08-15T19:34:18.827Z,28.87
2023-08-15T19:37:36.116Z,28.90
2023-08-15T19:40:40.386Z,28.83
2023-08-15T19:43:42.622Z,28.78
2023-08-15T19:46:44.994Z,28.69
2023-08-15T19:49:47.221Z,28.71
2023-08-15T19:52:49.394Z,28.60
2023-08-15T19:55:51.692Z,28.61
2023-08-15T19:58:54.079Z,28.57
2023-08-15T20:01:56.324Z,28.53
2023-08-15T20:04:58.491Z,28.46
2023-08-15T20:08:00.865Z,28.52
2023-08-15T20:11:03.781Z,28.53
2023-08-15T20:14:05.996Z,28.49
2023-08-15T20:17:08.249Z,28.41
2023-08-15T20:20:11.131Z,28.44
2023-08-15T20:23:13.440Z,28.33
2023-08-15T20:26:15.630Z,28.35
2023-08-15T20:29:17.759Z,28.34
2023-08-15T20:32:20.046Z,28.34
2023-08-15T20:35:22.248Z,28.31
2023-08-15T20:38:24.528Z,28.34
2023-08-15T20:41:26.744Z,28.35
2023-08-15T20:44:28.954Z,28.38
2023-08-15T20:47:31.323Z,28.32
2023-08-15T20:50:33.529Z,28.36
2023-08-15T20:53:35.742Z,28.39
2023-08-15T20:56:37.962Z,28.41
2023-08-15T20:59:40.198Z,28.39
2023-08-15T21:02:42.468Z,28.31
2023-08-15T21:05:45.282Z,28.28
2023-08-15T21:08:47.582Z,28.24
2023-08-15T21:11:49.796Z,28.24
2023-08-15T21:14:52.086Z,28.22
2023-08-15T21:17:54.309Z,28.21
2023-08-15T21:20:56.600Z,28.23
2023-08-15T21:23:58.798Z,28.21
2023-08-15T21:27:00.977Z,28.13
2023-08-15T21:30:03.314Z,28.22
2023-08-15T21:33:05.567Z,28.20
2023-08-15T21:36:08.034Z,28.12
2023-08-15T21:39:10.299Z,28.15
2023-08-15T21:42:12.575Z,28.08
2023-08-15T21:45:15.474Z,28.19
2023-08-15T21:48:17.753Z,28.21
2023-08-15T21:51:19.937Z,28.14
2023-08-15T21:54:23.363Z,28.08
2023-08-15T21:57:25.727Z,28.10
2023-08-15T22:00:28.382Z,28.01
2023-08-15T22:03:30.789Z,28.08
2023-08-15T22:06:33.136Z,28.09
2023-08-15T22:09:35.379Z,28.03
2023-08-15T22:12:37.948Z,27.91
2023-08-15T22:15:40.407Z,27.86
2023-08-15T22:18:42.642Z,27.94
2023-08-15T22:21:47.065Z,27.91
2023-08-15T22:24:57.424Z,27.84
2023-08-15T22:28:07.077Z,27.78
2023-08-15T22:31:09.795Z,27.72
2023-08-15T22:34:14.891Z,27.71
2023-08-15T22:37:17.173Z,27.65
2023-08-15T22:40:20.095Z,27.68
2023-08-15T22:43:22.276Z,27.62
2023-08-15T22:46:24.467Z,27.66
2023-08-15T22:49:26.643Z,27.68
2023-08-15T22:52:28.850Z,27.73
2023-08-15T22:55:34.011Z,27.72
2023-08-15T22:58:36.259Z,27.66
2023-08-15T23:01:38.520Z,27.62
2023-08-15T23:04:40.834Z,27.50
2023-08-15T23:07:43.096Z,27.47
2023-08-15T23:10:52.614Z,27.53
2023-08-15T23:13:54.901Z,27.53
2023-08-15T23:16:57.067Z,27.45
2023-08-15T23:19:59.347Z,27.40
2023-08-15T23:23:01.579Z,27.27
2023-08-15T23:26:03.920Z,27.27
2023-08-15T23:29:06.161Z,27.31
2023-08-15T23:32:08.384Z,27.20
2023-08-15T23:35:14.598Z,27.06
2023-08-15T23:38:18.141Z,27.15
2023-08-15T23:41:20.384Z,27.11
2023-08-15T23:44:22.626Z,27.16
2023-08-15T23:47:25.989Z,27.04
2023-08-15T23:50:28.396Z,27.09
2023-08-15T23:53:30.599Z,27.13
2023-08-15T23:56:32.802Z,27.03
2023-08-15T23:59:35.128Z,26.96
